Time;durP1;ratioP1;P1;durP2;ratioP2;P2;SDS_P1;SDS_P2;PMS_P1;PMS_P2;Temp;Humidity;BMP_temperature;BMP_pressure;BME280_temperature;BME280_humidity;BME280_pressure;Samples;Min_cycle;Max_cycle;Signal;HPM_P1;HPM_P2
2023/08/31 00:01:04;;;;;;;29.00;26.30;;;;;;;;;;5010074;28;20218;-87
2023/08/31 00:03:30;;;;;;;28.40;26.00;;;;;;;;;;5027540;28;20229;-85
2023/08/31 00:05:56;;;;;;;27.93;25.40;;;;;;;;;;5025805;28;20211;-85
2023/08/31 00:08:22;;;;;;;29.27;26.77;;;;;;;;;;5022386;28;20219;-84
2023/08/31 00:10:57;;;;;;;30.00;27.23;;;;;;;;;;5049127;28;20215;-84
2023/08/31 00:13:26;;;;;;;28.87;26.30;;;;;;;;;;5009301;28;20214;-86
2023/08/31 00:15:58;;;;;;;27.40;25.00;;;;;;;;;;5020109;28;20994;-85
2023/08/31 00:18:26;;;;;;;27.20;24.90;;;;;;;;;;5012374;28;21354;-84
2023/08/31 00:20:52;;;;;;;25.80;23.60;;;;;;;;;;5036572;28;20281;-83
2023/08/31 00:23:25;;;;;;;25.83;23.47;;;;;;;;;;5026500;28;20242;-85
2023/08/31 00:25:52;;;;;;;24.67;22.67;;;;;;;;;;5038524;28;20238;-85
2023/08/31 00:28:18;;;;;;;24.33;22.37;;;;;;;;;;5018409;28;20265;-84
2023/08/31 00:30:48;;;;;;;24.20;22.03;;;;;;;;;;5035847;28;20217;-85
2023/08/31 00:33:15;;;;;;;23.05;21.15;;;;;;;;;;5021657;28;20272;-85
2023/08/31 00:35:46;;;;;;;23.23;21.05;;;;;;;;;;5020925;28;20232;-85
2023/08/31 00:38:12;;;;;;;23.17;21.17;;;;;;;;;;5023749;28;20225;-84
2023/08/31 00:40:45;;;;;;;23.20;21.27;;;;;;;;;;5002587;28;20238;-85
2023/08/31 00:43:11;;;;;;;21.95;20.02;;;;;;;;;;5022088;28;20237;-85
2023/08/31 00:45:40;;;;;;;23.63;21.23;;;;;;;;;;5005073;28;20258;-84
2023/08/31 00:48:06;;;;;;;23.02;20.92;;;;;;;;;;5006682;28;20215;-85
2023/08/31 00:50:31;;;;;;;21.05;19.25;;;;;;;;;;5022156;28;20349;-86
2023/08/31 00:52:57;;;;;;;20.47;18.83;;;;;;;;;;5006281;28;20230;-86
2023/08/31 00:55:23;;;;;;;20.23;18.43;;;;;;;;;;5021420;28;20223;-85
2023/08/31 00:57:49;;;;;;;20.00;18.10;;;;;;;;;;5022873;28;20207;-83
2023/08/31 01:00:17;;;;;;;18.53;17.03;;;;;;;;;;5022620;28;20217;-84
2023/08/31 01:03:08;;;;;;;17.47;15.83;;;;;;;;;;4996761;28;20231;-85
2023/08/31 01:05:38;;;;;;;16.00;14.40;;;;;;;;;;5020739;28;20233;-85
2023/08/31 01:08:26;;;;;;;15.67;14.37;;;;;;;;;;5048620;28;20218;-84
2023/08/31 01:10:54;;;;;;;14.53;13.23;;;;;;;;;;5036426;28;20214;-85
2023/08/31 01:13:23;;;;;;;13.93;12.73;;;;;;;;;;5043485;28;20228;-84
2023/08/31 01:15:53;;;;;;;15.03;13.03;;;;;;;;;;5027681;28;20222;-84
2023/08/31 01:18:24;;;;;;;13.83;12.53;;;;;;;;;;5037512;28;20214;-84
2023/08/31 01:21:01;;;;;;;12.83;11.73;;;;;;;;;;5038924;28;20211;-84
2023/08/31 01:23:30;;;;;;;12.33;11.33;;;;;;;;;;5022854;28;20317;-84
2023/08/31 01:25:56;;;;;;;12.63;11.43;;;;;;;;;;5037541;28;20215;-83
2023/08/31 01:28:22;;;;;;;12.70;11.60;;;;;;;;;;5023817;28;20233;-84
2023/08/31 01:30:47;;;;;;;11.93;11.00;;;;;;;;;;5055321;28;20215;-85
2023/08/31 01:33:15;;;;;;;11.70;10.70;;;;;;;;;;5049969;28;20226;-85
2023/08/31 01:35:46;;;;;;;13.57;11.60;;;;;;;;;;5021361;28;20228;-84
2023/08/31 01:38:13;;;;;;;11.90;10.80;;;;;;;;;;5012933;28;20238;-86
2023/08/31 01:40:52;;;;;;;11.83;10.83;;;;;;;;;;5019785;28;20218;-86
2023/08/31 01:43:17;;;;;;;12.13;11.07;;;;;;;;;;5016831;28;20206;-87
2023/08/31 01:45:43;;;;;;;12.00;11.00;;;;;;;;;;5021988;28;21253;-85
2023/08/31 01:48:13;;;;;;;13.03;11.77;;;;;;;;;;5016403;28;20269;-85
2023/08/31 01:50:39;;;;;;;12.80;11.60;;;;;;;;;;5021495;28;20230;-85
2023/08/31 01:53:08;;;;;;;11.20;10.30;;;;;;;;;;5012770;28;20219;-86
2023/08/31 01:55:35;;;;;;;12.33;11.13;;;;;;;;;;5016072;28;20337;-85
2023/08/31 01:58:04;;;;;;;11.97;10.80;;;;;;;;;;5038639;28;20207;-83
2023/08/31 02:00:34;;;;;;;11.80;10.67;;;;;;;;;;5005154;28;20734;-85
2023/08/31 02:03:03;;;;;;;12.33;11.27;;;;;;;;;;5022292;28;20203;-85
2023/08/31 02:05:28;;;;;;;12.07;11.00;;;;;;;;;;5024176;28;20258;-83
2023/08/31 02:07:54;;;;;;;12.27;11.07;;;;;;;;;;5032350;28;20217;-86
2023/08/31 02:10:19;;;;;;;12.20;10.90;;;;;;;;;;5019734;28;20264;-84
2023/08/31 02:12:47;;;;;;;13.37;11.97;;;;;;;;;;5050383;28;20223;-85
2023/08/31 02:15:13;;;;;;;11.57;10.47;;;;;;;;;;5019441;28;20248;-84
2023/08/31 02:17:38;;;;;;;13.33;11.93;;;;;;;;;;5022039;28;20238;-83
2023/08/31 02:20:08;;;;;;;16.37;11.53;;;;;;;;;;5024420;28;20297;-85
2023/08/31 02:22:42;;;;;;;12.07;10.87;;;;;;;;;;5004045;28;20229;-84
2023/08/31 02:25:08;;;;;;;11.83;10.83;;;;;;;;;;5015074;28;20286;-82
2023/08/31 02:27:33;;;;;;;10.93;9.93;;;;;;;;;;5006587;28;20221;-84
2023/08/31 02:29:59;;;;;;;13.17;11.87;;;;;;;;;;5019334;28;20211;-85
2023/08/31 02:32:26;;;;;;;12.37;11.23;;;;;;;;;;5023732;28;20274;-86
2023/08/31 02:34:56;;;;;;;12.07;10.97;;;;;;;;;;5007973;28;20214;-83
2023/08/31 02:37:22;;;;;;;11.80;10.63;;;;;;;;;;5022840;28;20227;-84
2023/08/31 02:39:50;;;;;;;12.80;11.30;;;;;;;;;;5024470;28;20296;-85
2023/08/31 02:42:18;;;;;;;24.10;11.87;;;;;;;;;;5023467;28;20569;-85
2023/08/31 02:44:45;;;;;;;12.77;11.50;;;;;;;;;;5026295;28;20715;-83
2023/08/31 02:47:12;;;;;;;12.50;11.30;;;;;;;;;;5022867;28;20222;-85
2023/08/31 02:49:38;;;;;;;12.03;10.83;;;;;;;;;;5024414;28;20599;-85
2023/08/31 02:52:06;;;;;;;11.63;10.53;;;;;;;;;;5024100;28;20217;-85
2023/08/31 02:54:32;;;;;;;12.47;11.27;;;;;;;;;;5040816;28;20214;-84
2023/08/31 02:57:00;;;;;;;11.57;10.67;;;;;;;;;;5024616;28;20263;-85
2023/08/31 02:59:28;;;;;;;14.67;12.33;;;;;;;;;;5024727;28;20225;-84
2023/08/31 03:01:54;;;;;;;12.20;11.20;;;;;;;;;;5008253;28;20222;-86
2023/08/31 03:04:27;;;;;;;12.80;11.57;;;;;;;;;;5002119;28;20317;-86
2023/08/31 03:06:53;;;;;;;12.60;11.50;;;;;;;;;;5039105;28;20232;-86
2023/08/31 03:09:20;;;;;;;12.03;10.87;;;;;;;;;;5023684;28;20667;-85
2023/08/31 03:11:48;;;;;;;12.50;11.40;;;;;;;;;;5020031;28;20290;-84
2023/08/31 03:14:13;;;;;;;12.97;11.47;;;;;;;;;;5017684;28;20211;-85
2023/08/31 03:16:41;;;;;;;12.10;11.00;;;;;;;;;;5026128;28;20223;-84
2023/08/31 03:19:10;;;;;;;12.03;10.93;;;;;;;;;;5005163;28;20706;-85
2023/08/31 03:21:35;;;;;;;12.87;11.63;;;;;;;;;;5022758;28;20315;-86
2023/08/31 03:24:01;;;;;;;13.73;12.33;;;;;;;;;;5040320;28;20211;-85
2023/08/31 03:26:27;;;;;;;13.03;11.83;;;;;;;;;;5020601;28;20295;-84
2023/08/31 03:28:52;;;;;;;12.77;11.53;;;;;;;;;;5021954;28;20831;-85
2023/08/31 03:31:21;;;;;;;13.60;12.03;;;;;;;;;;5057450;28;20215;-85
2023/08/31 03:33:52;;;;;;;12.57;11.50;;;;;;;;;;5004258;28;20257;-85
2023/08/31 03:36:18;;;;;;;13.63;12.33;;;;;;;;;;5040117;28;20199;-85
2023/08/31 03:38:43;;;;;;;14.27;12.90;;;;;;;;;;5008621;28;20219;-84
2023/08/31 03:41:09;;;;;;;15.13;13.73;;;;;;;;;;5038361;28;20218;-84
2023/08/31 03:43:35;;;;;;;14.87;13.43;;;;;;;;;;5038792;28;20256;-86
2023/08/31 03:46:01;;;;;;;14.97;13.57;;;;;;;;;;5006457;28;20215;-85
2023/08/31 03:48:29;;;;;;;14.20;12.97;;;;;;;;;;5035716;28;20659;-83
2023/08/31 03:50:55;;;;;;;15.40;14.10;;;;;;;;;;5004778;28;20222;-84
2023/08/31 03:53:27;;;;;;;14.43;13.00;;;;;;;;;;5018250;28;20542;-83
2023/08/31 03:55:56;;;;;;;14.50;13.13;;;;;;;;;;5011284;28;20939;-85
2023/08/31 03:58:23;;;;;;;14.73;13.20;;;;;;;;;;5021922;28;20646;-85
2023/08/31 04:04:50;;;;;;;14.97;13.20;;;;;;;;;;5072214;28;20257;-85
2023/08/31 04:07:19;;;;;;;14.00;12.70;;;;;;;;;;5019816;28;20215;-84
2023/08/31 04:09:46;;;;;;;15.23;13.83;;;;;;;;;;5005363;28;20225;-86
2023/08/31 04:12:14;;;;;;;14.07;12.90;;;;;;;;;;5005651;28;20675;-85
2023/08/31 04:14:42;;;;;;;15.27;13.80;;;;;;;;;;5009059;28;20222;-86
2023/08/31 04:17:10;;;;;;;14.47;13.17;;;;;;;;;;5022471;28;20278;-84
2023/08/31 04:19:38;;;;;;;15.03;13.63;;;;;;;;;;5022345;28;20602;-86
2023/08/31 04:22:08;;;;;;;14.83;13.53;;;;;;;;;;5022801;28;20679;-83
2023/08/31 04:24:36;;;;;;;15.50;14.07;;;;;;;;;;5016319;28;20321;-85
2023/08/31 04:27:04;;;;;;;15.50;13.87;;;;;;;;;;5034063;28;20219;-85
2023/08/31 04:29:30;;;;;;;14.83;13.37;;;;;;;;;;5023321;28;20226;-85
2023/08/31 04:31:58;;;;;;;14.50;13.30;;;;;;;;;;5008099;28;20283;-86
2023/08/31 04:34:24;;;;;;;15.93;14.40;;;;;;;;;;5018813;28;20239;-84
2023/08/31 04:36:52;;;;;;;15.03;13.73;;;;;;;;;;5020040;28;20220;-84
2023/08/31 04:39:20;;;;;;;16.37;14.67;;;;;;;;;;5023239;28;20215;-85
2023/08/31 04:41:50;;;;;;;14.27;13.10;;;;;;;;;;5004354;28;20636;-85
2023/08/31 04:44:16;;;;;;;14.70;13.30;;;;;;;;;;5003008;28;20603;-85
2023/08/31 04:46:42;;;;;;;15.43;13.07;;;;;;;;;;5021950;28;20226;-84
2023/08/31 04:49:08;;;;;;;14.53;13.13;;;;;;;;;;5022819;28;20215;-86
2023/08/31 04:51:41;;;;;;;14.13;12.73;;;;;;;;;;5006579;28;20295;-85
2023/08/31 04:54:10;;;;;;;13.07;11.87;;;;;;;;;;5037363;28;20214;-83
2023/08/31 04:56:36;;;;;;;14.77;13.37;;;;;;;;;;5056944;28;20234;-84
2023/08/31 04:59:02;;;;;;;15.20;13.50;;;;;;;;;;5030692;28;20222;-84
2023/08/31 05:01:31;;;;;;;15.53;13.90;;;;;;;;;;5021930;28;20293;-85
2023/08/31 05:03:58;;;;;;;15.40;13.80;;;;;;;;;;5020184;28;20231;-86
2023/08/31 05:06:24;;;;;;;15.07;13.60;;;;;;;;;;5028935;28;20224;-85
2023/08/31 05:08:52;;;;;;;15.53;13.70;;;;;;;;;;5033722;28;20219;-85
2023/08/31 05:11:20;;;;;;;14.67;12.80;;;;;;;;;;5032814;28;20210;-85
2023/08/31 05:13:47;;;;;;;15.13;13.73;;;;;;;;;;5019447;28;20715;-86
2023/08/31 05:16:12;;;;;;;13.70;12.43;;;;;;;;;;5004036;28;20241;-84
2023/08/31 05:18:38;;;;;;;13.80;12.60;;;;;;;;;;5021383;28;20617;-83
2023/08/31 05:21:04;;;;;;;13.33;12.10;;;;;;;;;;5021721;28;20215;-85
2023/08/31 05:23:34;;;;;;;12.90;11.70;;;;;;;;;;5021763;28;20253;-86
2023/08/31 05:26:02;;;;;;;14.33;11.90;;;;;;;;;;5030578;28;20240;-87
2023/08/31 05:28:28;;;;;;;12.13;11.03;;;;;;;;;;5037624;28;20207;-86
2023/08/31 05:30:57;;;;;;;13.07;11.67;;;;;;;;;;5034899;28;20214;-86
2023/08/31 05:33:33;;;;;;;13.60;11.57;;;;;;;;;;5053439;28;20215;-84
2023/08/31 05:36:01;;;;;;;13.40;12.07;;;;;;;;;;5019132;28;20226;-86
2023/08/31 05:38:26;;;;;;;12.60;11.33;;;;;;;;;;5034756;28;20228;-87
2023/08/31 05:40:52;;;;;;;12.27;11.00;;;;;;;;;;5005217;28;20241;-87
2023/08/31 05:43:17;;;;;;;14.83;11.10;;;;;;;;;;5002797;28;20222;-87
2023/08/31 05:45:43;;;;;;;16.93;11.97;;;;;;;;;;5000488;28;20230;-87
2023/08/31 05:48:14;;;;;;;15.03;11.17;;;;;;;;;;5005458;28;20256;-87
2023/08/31 05:50:43;;;;;;;13.57;11.50;;;;;;;;;;5006043;28;20235;-86
2023/08/31 05:53:08;;;;;;;12.87;11.50;;;;;;;;;;5020037;28;20302;-87
2023/08/31 05:55:36;;;;;;;11.87;10.77;;;;;;;;;;5005808;28;20234;-85
2023/08/31 05:58:04;;;;;;;12.00;10.80;;;;;;;;;;5006799;28;20227;-84
2023/08/31 06:00:33;;;;;;;12.33;11.03;;;;;;;;;;5047357;28;20231;-86
2023/08/31 06:03:00;;;;;;;12.27;11.07;;;;;;;;;;5023388;28;20222;-86
2023/08/31 06:05:27;;;;;;;11.30;10.30;;;;;;;;;;5005985;28;20217;-86
2023/08/31 06:07:53;;;;;;;12.03;10.93;;;;;;;;;;5019121;28;20341;-88
2023/08/31 06:10:23;;;;;;;11.10;10.10;;;;;;;;;;5003729;28;20614;-86
2023/08/31 06:12:49;;;;;;;11.10;10.10;;;;;;;;;;5005611;28;20237;-86
2023/08/31 06:15:20;;;;;;;12.03;10.87;;;;;;;;;;5021925;28;20222;-88
2023/08/31 06:17:46;;;;;;;11.80;10.60;;;;;;;;;;5014738;28;20242;-86
2023/08/31 06:20:12;;;;;;;13.17;11.90;;;;;;;;;;5035232;28;20576;-85
2023/08/31 06:22:39;;;;;;;12.00;10.80;;;;;;;;;;5015143;28;20278;-87
2023/08/31 06:25:11;;;;;;;11.03;9.93;;;;;;;;;;5035500;28;20218;-84
2023/08/31 06:27:36;;;;;;;10.10;9.13;;;;;;;;;;5004951;28;20351;-86
2023/08/31 06:30:03;;;;;;;14.57;9.10;;;;;;;;;;5020192;28;20253;-84
2023/08/31 06:32:31;;;;;;;9.70;8.70;;;;;;;;;;5036757;28;20261;-86
2023/08/31 06:35:01;;;;;;;10.10;9.00;;;;;;;;;;5038307;28;20229;-85
2023/08/31 06:37:26;;;;;;;9.50;8.70;;;;;;;;;;5020465;28;20234;-85
2023/08/31 06:39:52;;;;;;;10.47;9.47;;;;;;;;;;5020004;28;20300;-85
2023/08/31 06:42:23;;;;;;;9.90;8.90;;;;;;;;;;5018922;28;20218;-84
2023/08/31 06:44:51;;;;;;;9.37;8.50;;;;;;;;;;5021922;28;20218;-85
2023/08/31 06:47:17;;;;;;;9.07;8.32;;;;;;;;;;5015867;28;20303;-83
2023/08/31 06:49:43;;;;;;;10.10;8.60;;;;;;;;;;5032494;28;20258;-83
2023/08/31 06:52:15;;;;;;;10.50;8.80;;;;;;;;;;5031142;28;20228;-84
2023/08/31 06:54:43;;;;;;;11.53;8.70;;;;;;;;;;5033394;28;20820;-85
2023/08/31 06:57:09;;;;;;;9.17;8.23;;;;;;;;;;5042972;28;20235;-83
2023/08/31 06:59:34;;;;;;;9.03;8.07;;;;;;;;;;5050909;28;20227;-85
2023/08/31 07:02:00;;;;;;;10.40;9.40;;;;;;;;;;5039719;28;20219;-86
2023/08/31 07:04:27;;;;;;;9.32;8.52;;;;;;;;;;5022942;28;20226;-87
2023/08/31 07:06:52;;;;;;;10.97;8.60;;;;;;;;;;5008997;28;20313;-84
2023/08/31 07:09:23;;;;;;;11.00;9.00;;;;;;;;;;5023732;28;20242;-84
2023/08/31 07:11:48;;;;;;;9.20;8.30;;;;;;;;;;5024533;28;20226;-86
2023/08/31 07:14:19;;;;;;;9.73;8.87;;;;;;;;;;5031915;28;20276;-89
2023/08/31 07:16:44;;;;;;;9.30;8.50;;;;;;;;;;5039231;28;20603;-85
2023/08/31 07:19:10;;;;;;;9.40;8.50;;;;;;;;;;5022745;28;20237;-87
2023/08/31 07:21:35;;;;;;;9.43;8.53;;;;;;;;;;5006820;28;20227;-86
2023/08/31 07:24:01;;;;;;;10.67;9.67;;;;;;;;;;5027390;28;20223;-86
2023/08/31 07:26:28;;;;;;;9.80;8.80;;;;;;;;;;5015581;28;20223;-84
2023/08/31 07:28:56;;;;;;;10.27;9.33;;;;;;;;;;5022680;28;20774;-85
2023/08/31 07:31:24;;;;;;;9.83;9.03;;;;;;;;;;5006509;28;20667;-86
2023/08/31 07:33:52;;;;;;;10.17;9.27;;;;;;;;;;5033548;28;20254;-84
2023/08/31 07:36:18;;;;;;;10.50;9.33;;;;;;;;;;5039769;28;20798;-84
2023/08/31 07:38:46;;;;;;;10.23;8.77;;;;;;;;;;5030041;28;20230;-84
2023/08/31 07:41:11;;;;;;;9.83;8.83;;;;;;;;;;5037991;28;20235;-84
2023/08/31 07:43:37;;;;;;;11.40;9.17;;;;;;;;;;5056344;28;20230;-85
2023/08/31 07:46:03;;;;;;;9.95;8.98;;;;;;;;;;5054025;28;20290;-85
2023/08/31 07:48:31;;;;;;;8.85;7.97;;;;;;;;;;5033068;28;20218;-84
2023/08/31 07:50:58;;;;;;;7.35;6.65;;;;;;;;;;5027051;28;20230;-85
2023/08/31 07:53:27;;;;;;;9.45;6.30;;;;;;;;;;5026904;28;20238;-88
2023/08/31 07:56:01;;;;;;;7.75;6.07;;;;;;;;;;5025075;28;20766;-87
2023/08/31 07:58:29;;;;;;;6.05;5.47;;;;;;;;;;5026603;28;20233;-86
2023/08/31 08:00:58;;;;;;;6.07;5.47;;;;;;;;;;5036654;28;20237;-86
2023/08/31 08:03:24;;;;;;;5.90;4.68;;;;;;;;;;5042528;28;20215;-86
2023/08/31 08:05:49;;;;;;;6.00;5.10;;;;;;;;;;5009480;28;20260;-90
2023/08/31 08:08:15;;;;;;;6.68;6.07;;;;;;;;;;5042144;28;20238;-87
2023/08/31 08:10:43;;;;;;;6.68;6.05;;;;;;;;;;5019495;28;20229;-87
2023/08/31 08:13:09;;;;;;;6.65;6.13;;;;;;;;;;5021362;28;20230;-87
2023/08/31 08:15:40;;;;;;;6.20;5.60;;;;;;;;;;5035244;28;20230;-87
2023/08/31 08:18:10;;;;;;;7.28;6.57;;;;;;;;;;5052622;28;20231;-87
2023/08/31 08:20:36;;;;;;;6.20;5.70;;;;;;;;;;5006520;28;20306;-85
2023/08/31 08:23:01;;;;;;;7.27;6.50;;;;;;;;;;5039511;28;20226;-87
2023/08/31 08:25:32;;;;;;;6.70;6.10;;;;;;;;;;5022505;28;20230;-87
2023/08/31 08:27:59;;;;;;;7.68;6.88;;;;;;;;;;5019101;28;20219;-87
2023/08/31 08:30:25;;;;;;;7.90;6.70;;;;;;;;;;5003872;28;20669;-87
2023/08/31 08:32:53;;;;;;;7.28;6.68;;;;;;;;;;5021745;28;20219;-87
2023/08/31 08:35:21;;;;;;;7.68;6.97;;;;;;;;;;5007314;28;20248;-87
2023/08/31 08:37:46;;;;;;;8.02;6.93;;;;;;;;;;5046031;28;20223;-88
2023/08/31 08:40:15;;;;;;;8.57;6.60;;;;;;;;;;5036285;28;20219;-87
2023/08/31 08:42:43;;;;;;;8.57;7.38;;;;;;;;;;5007516;28;20247;-85
2023/08/31 08:45:18;;;;;;;8.20;7.30;;;;;;;;;;5005476;28;20226;-84
2023/08/31 08:47:46;;;;;;;9.50;8.53;;;;;;;;;;5038311;28;20225;-87
2023/08/31 08:50:11;;;;;;;9.70;9.00;;;;;;;;;;5057406;28;20223;-88
2023/08/31 08:52:41;;;;;;;9.93;8.97;;;;;;;;;;5007741;28;20229;-84
2023/08/31 08:55:09;;;;;;;10.90;9.80;;;;;;;;;;5007576;28;20223;-89
2023/08/31 08:57:38;;;;;;;12.83;11.63;;;;;;;;;;5035957;28;20220;-87
2023/08/31 09:00:08;;;;;;;14.57;12.57;;;;;;;;;;5022724;28;20219;-89
2023/08/31 09:02:36;;;;;;;13.83;12.60;;;;;;;;;;5023636;28;20241;-88
2023/08/31 09:05:02;;;;;;;15.50;13.87;;;;;;;;;;5020879;28;20222;-88
2023/08/31 09:07:29;;;;;;;16.03;14.40;;;;;;;;;;5031128;28;20219;-87
2023/08/31 09:09:55;;;;;;;17.30;15.90;;;;;;;;;;5037214;28;20212;-87
2023/08/31 09:12:22;;;;;;;17.70;16.20;;;;;;;;;;5005228;28;20221;-88
2023/08/31 09:15:04;;;;;;;18.23;16.83;;;;;;;;;;5018092;28;20226;-88
2023/08/31 09:17:39;;;;;;;19.83;18.13;;;;;;;;;;5037681;28;20222;-86
2023/08/31 09:20:05;;;;;;;21.20;19.30;;;;;;;;;;5023977;28;20233;-89
2023/08/31 09:22:32;;;;;;;22.07;19.87;;;;;;;;;;5020154;28;20207;-88
2023/08/31 09:25:00;;;;;;;22.83;20.77;;;;;;;;;;5015936;28;20220;-88
2023/08/31 09:27:26;;;;;;;23.07;20.93;;;;;;;;;;5036298;28;20207;-87
2023/08/31 09:29:57;;;;;;;23.50;21.47;;;;;;;;;;5021476;28;20302;-87
2023/08/31 09:32:23;;;;;;;22.27;20.37;;;;;;;;;;5023095;28;20257;-88
2023/08/31 09:34:51;;;;;;;22.20;20.43;;;;;;;;;;5017738;28;20233;-87
2023/08/31 09:37:16;;;;;;;24.03;22.03;;;;;;;;;;5002094;28;20219;-86
2023/08/31 09:39:42;;;;;;;23.83;21.83;;;;;;;;;;5029615;28;20232;-89
2023/08/31 09:42:08;;;;;;;22.63;20.57;;;;;;;;;;5030545;28;20219;-86
2023/08/31 09:44:40;;;;;;;21.87;20.00;;;;;;;;;;5022151;28;20219;-88
2023/08/31 09:47:06;;;;;;;21.37;19.57;;;;;;;;;;5035201;28;20241;-89
2023/08/31 09:49:31;;;;;;;20.90;19.10;;;;;;;;;;5034373;28;20977;-89
2023/08/31 09:51:57;;;;;;;20.40;18.70;;;;;;;;;;5019947;28;20734;-87
2023/08/31 09:54:26;;;;;;;20.03;18.43;;;;;;;;;;5020167;28;20228;-89
2023/08/31 09:56:52;;;;;;;20.60;18.90;;;;;;;;;;5048234;28;20227;-85
2023/08/31 09:59:22;;;;;;;22.17;20.17;;;;;;;;;;5020819;28;20217;-87
2023/08/31 10:01:47;;;;;;;21.40;19.43;;;;;;;;;;5036922;28;20215;-86
2023/08/31 10:04:13;;;;;;;22.93;20.67;;;;;;;;;;5037242;28;20249;-88
2023/08/31 10:06:41;;;;;;;23.23;21.07;;;;;;;;;;5020178;28;20714;-89
2023/08/31 10:09:09;;;;;;;21.50;19.63;;;;;;;;;;5002510;28;20228;-87
2023/08/31 10:11:37;;;;;;;24.03;21.93;;;;;;;;;;5042762;28;20249;-87
2023/08/31 10:14:03;;;;;;;25.13;22.50;;;;;;;;;;5044090;28;20219;-87
2023/08/31 10:16:32;;;;;;;23.53;21.53;;;;;;;;;;5020435;28;20318;-87
2023/08/31 10:18:58;;;;;;;21.50;19.60;;;;;;;;;;5023289;28;20233;-87
2023/08/31 10:21:26;;;;;;;19.90;18.30;;;;;;;;;;5020785;28;20294;-88
2023/08/31 10:23:51;;;;;;;19.13;17.47;;;;;;;;;;5040619;28;20215;-87
2023/08/31 10:26:32;;;;;;;18.30;16.80;;;;;;;;;;5032897;28;20213;-88
2023/08/31 10:28:58;;;;;;;17.63;15.97;;;;;;;;;;5019116;28;20318;-88
2023/08/31 10:31:24;;;;;;;17.07;15.37;;;;;;;;;;5020017;28;20215;-89
2023/08/31 10:33:59;;;;;;;17.77;16.27;;;;;;;;;;5021650;28;20223;-87
2023/08/31 10:36:38;;;;;;;17.37;15.90;;;;;;;;;;5036101;28;20314;-89
2023/08/31 10:39:19;;;;;;;17.53;16.10;;;;;;;;;;5036269;28;20293;-88
2023/08/31 10:41:55;;;;;;;19.50;17.80;;;;;;;;;;5023912;28;20246;-88
2023/08/31 10:44:21;;;;;;;20.10;18.27;;;;;;;;;;5034684;28;20217;-89
2023/08/31 10:46:47;;;;;;;19.07;17.27;;;;;;;;;;5032849;28;20215;-89
2023/08/31 10:49:14;;;;;;;20.13;18.23;;;;;;;;;;5052592;28;20630;-88
2023/08/31 10:52:16;;;;;;;17.50;15.97;;;;;;;;;;5024383;28;20845;-89
2023/08/31 10:54:42;;;;;;;15.00;13.57;;;;;;;;;;5047537;28;20230;-88
2023/08/31 10:57:07;;;;;;;17.17;15.77;;;;;;;;;;5026508;28;20211;-87
2023/08/31 10:59:55;;;;;;;16.57;15.20;;;;;;;;;;5023695;28;20227;-88
2023/08/31 11:02:58;;;;;;;14.67;13.50;;;;;;;;;;5040274;28;20245;-89
2023/08/31 11:05:24;;;;;;;14.83;13.37;;;;;;;;;;4976282;28;20313;-88
2023/08/31 11:07:52;;;;;;;14.50;13.33;;;;;;;;;;5038462;28;20231;-89
2023/08/31 11:10:19;;;;;;;13.97;12.77;;;;;;;;;;5031066;28;20583;-89
2023/08/31 11:12:48;;;;;;;14.03;12.73;;;;;;;;;;5040777;28;20219;-89
2023/08/31 11:15:20;;;;;;;15.07;13.70;;;;;;;;;;5038495;28;20270;-87
2023/08/31 11:17:46;;;;;;;15.23;13.93;;;;;;;;;;5023369;28;20305;-87
2023/08/31 11:20:16;;;;;;;14.00;12.90;;;;;;;;;;5039298;28;20284;-89
2023/08/31 11:22:43;;;;;;;15.25;14.00;;;;;;;;;;5051731;28;20219;-87
2023/08/31 11:25:09;;;;;;;15.95;14.57;;;;;;;;;;5037394;28;20219;-88
2023/08/31 11:27:35;;;;;;;16.80;15.50;;;;;;;;;;5023913;28;20309;-87
2023/08/31 11:30:02;;;;;;;16.27;14.95;;;;;;;;;;5027745;28;20215;-87
2023/08/31 11:32:30;;;;;;;15.95;14.50;;;;;;;;;;5016923;28;20223;-88
2023/08/31 11:35:03;;;;;;;15.80;14.40;;;;;;;;;;5040571;28;20285;-85
2023/08/31 11:37:31;;;;;;;13.57;12.50;;;;;;;;;;5043783;28;20254;-85
2023/08/31 11:40:00;;;;;;;11.73;10.73;;;;;;;;;;5027177;28;20236;-85
2023/08/31 11:42:26;;;;;;;9.30;8.45;;;;;;;;;;5026302;28;20594;-86
2023/08/31 11:44:52;;;;;;;8.38;6.95;;;;;;;;;;5032364;28;20219;-84
2023/08/31 11:47:20;;;;;;;6.93;5.72;;;;;;;;;;5041925;28;20241;-87
2023/08/31 11:49:48;;;;;;;4.50;4.10;;;;;;;;;;5016827;28;20211;-85
2023/08/31 11:52:14;;;;;;;4.63;4.22;;;;;;;;;;5031919;28;20707;-83
2023/08/31 11:54:41;;;;;;;4.80;3.80;;;;;;;;;;5021504;28;20306;-86
2023/08/31 11:57:08;;;;;;;5.25;3.10;;;;;;;;;;5032270;28;20226;-86
2023/08/31 11:59:36;;;;;;;3.80;3.10;;;;;;;;;;5042932;28;20256;-86
2023/08/31 12:02:05;;;;;;;3.30;2.50;;;;;;;;;;5045773;28;20245;-84
2023/08/31 12:04:30;;;;;;;2.45;2.00;;;;;;;;;;5027970;28;20253;-86
2023/08/31 12:07:06;;;;;;;2.17;1.60;;;;;;;;;;5045059;28;20301;-85
2023/08/31 12:09:32;;;;;;;1.98;1.67;;;;;;;;;;5027573;28;20219;-86
2023/08/31 12:12:05;;;;;;;2.72;1.58;;;;;;;;;;5028629;28;20206;-85
2023/08/31 12:14:30;;;;;;;3.10;1.75;;;;;;;;;;5013241;28;20267;-85
2023/08/31 12:17:08;;;;;;;3.83;1.83;;;;;;;;;;5024858;28;20237;-85
2023/08/31 12:19:36;;;;;;;4.25;1.80;;;;;;;;;;5018353;28;20230;-85
2023/08/31 12:22:02;;;;;;;1.80;1.55;;;;;;;;;;5029917;28;20215;-87
2023/08/31 12:24:28;;;;;;;2.42;1.80;;;;;;;;;;5039780;28;20610;-85
2023/08/31 12:26:58;;;;;;;7.70;2.05;;;;;;;;;;5024666;28;20219;-85
2023/08/31 12:29:24;;;;;;;1.48;1.38;;;;;;;;;;5029211;28;20242;-85
2023/08/31 12:31:50;;;;;;;2.85;1.73;;;;;;;;;;5009658;28;20296;-84
2023/08/31 12:34:16;;;;;;;6.07;1.40;;;;;;;;;;5027000;28;20249;-84
2023/08/31 12:36:46;;;;;;;1.75;1.27;;;;;;;;;;5027061;28;20222;-84
2023/08/31 12:39:12;;;;;;;2.65;1.20;;;;;;;;;;5010347;28;20241;-86
2023/08/31 12:41:38;;;;;;;1.10;0.90;;;;;;;;;;5029884;28;20226;-85
2023/08/31 12:44:04;;;;;;;9.75;1.90;;;;;;;;;;5012069;28;20203;-86
2023/08/31 12:46:35;;;;;;;1.77;1.40;;;;;;;;;;5026773;28;20776;-84
2023/08/31 12:49:01;;;;;;;3.33;1.60;;;;;;;;;;5019317;28;20270;-87
2023/08/31 12:51:29;;;;;;;4.10;1.77;;;;;;;;;;5019336;28;20605;-82
2023/08/31 12:53:54;;;;;;;2.00;1.25;;;;;;;;;;5032790;28;20207;-86
2023/08/31 12:56:23;;;;;;;1.73;1.40;;;;;;;;;;5016910;28;20226;-85
2023/08/31 12:58:52;;;;;;;1.75;1.15;;;;;;;;;;5040350;28;20265;-85
2023/08/31 13:01:18;;;;;;;1.80;1.27;;;;;;;;;;5023377;28;20966;-83
2023/08/31 13:03:49;;;;;;;2.53;1.55;;;;;;;;;;5047531;28;20250;-84
2023/08/31 13:06:17;;;;;;;2.25;1.58;;;;;;;;;;5025535;28;20698;-84
2023/08/31 13:08:44;;;;;;;2.15;1.85;;;;;;;;;;5039674;28;20233;-84
2023/08/31 13:11:14;;;;;;;2.75;1.65;;;;;;;;;;5029811;28;20229;-86
2023/08/31 13:13:40;;;;;;;3.65;2.20;;;;;;;;;;5007917;28;20250;-86
2023/08/31 13:16:06;;;;;;;5.72;1.60;;;;;;;;;;5021943;28;20232;-87
2023/08/31 13:18:32;;;;;;;4.80;1.90;;;;;;;;;;5005835;28;20226;-86
2023/08/31 13:21:00;;;;;;;3.30;1.50;;;;;;;;;;5043252;28;20218;-85
2023/08/31 13:23:25;;;;;;;1.73;1.40;;;;;;;;;;5018590;28;20219;-87
2023/08/31 13:25:51;;;;;;;3.22;1.80;;;;;;;;;;5026119;28;20234;-86
2023/08/31 13:28:17;;;;;;;3.05;1.40;;;;;;;;;;5026320;28;20220;-87
2023/08/31 13:30:43;;;;;;;2.10;1.50;;;;;;;;;;5023452;28;20591;-87
2023/08/31 13:33:08;;;;;;;3.00;1.50;;;;;;;;;;5002455;28;20215;-87
2023/08/31 13:35:34;;;;;;;10.07;1.97;;;;;;;;;;5030482;28;20222;-87
2023/08/31 13:38:00;;;;;;;2.03;1.40;;;;;;;;;;5030873;28;20219;-88
2023/08/31 13:40:27;;;;;;;3.33;1.77;;;;;;;;;;5041728;28;20589;-90
2023/08/31 13:42:59;;;;;;;4.43;1.98;;;;;;;;;;5034952;28;20214;-89
2023/08/31 13:45:25;;;;;;;2.42;2.00;;;;;;;;;;5030397;28;20264;-89
2023/08/31 13:47:51;;;;;;;6.88;2.20;;;;;;;;;;5025519;28;20245;-89
2023/08/31 13:50:17;;;;;;;101.00;90.13;;;;;;;;;;5044554;28;20207;-88
2023/08/31 13:52:45;;;;;;;6.17;3.43;;;;;;;;;;5054655;28;20474;-90
2023/08/31 13:55:11;;;;;;;2.53;1.90;;;;;;;;;;5032442;28;20593;-88
2023/08/31 13:57:41;;;;;;;2.70;1.77;;;;;;;;;;5009160;28;20226;-87
2023/08/31 14:00:11;;;;;;;3.43;2.07;;;;;;;;;;5000614;28;20763;-89
2023/08/31 14:02:38;;;;;;;2.83;2.00;;;;;;;;;;5007456;28;20887;-88
2023/08/31 14:05:06;;;;;;;1.97;1.50;;;;;;;;;;5019043;28;20215;-88
2023/08/31 14:07:32;;;;;;;2.67;1.57;;;;;;;;;;5021366;28;20253;-89
2023/08/31 14:09:58;;;;;;;1.80;1.60;;;;;;;;;;5047118;28;20214;-87
2023/08/31 14:12:25;;;;;;;1.63;1.53;;;;;;;;;;5014294;28;20253;-88
2023/08/31 14:14:51;;;;;;;1.20;1.13;;;;;;;;;;5004585;28;20620;-89
2023/08/31 14:17:17;;;;;;;1.77;1.20;;;;;;;;;;5003034;28;20290;-87
2023/08/31 14:19:45;;;;;;;2.27;1.50;;;;;;;;;;5004523;28;20230;-88
2023/08/31 14:22:12;;;;;;;3.23;1.50;;;;;;;;;;5019999;28;20211;-90
2023/08/31 14:24:43;;;;;;;2.27;1.70;;;;;;;;;;5021083;28;20250;-90
2023/08/31 14:27:11;;;;;;;2.33;1.50;;;;;;;;;;4989784;28;20302;-90
2023/08/31 14:29:39;;;;;;;1.33;1.23;;;;;;;;;;4995479;28;20220;-91
2023/08/31 14:32:08;;;;;;;1.48;1.30;;;;;;;;;;5038467;28;20278;-87
2023/08/31 14:34:34;;;;;;;3.23;1.40;;;;;;;;;;5037787;28;20218;-87